createdAt,value
2022-10-20T00:00:46.184Z,96.70
2022-10-20T00:01:46.203Z,96.49
2022-10-20T00:02:46.200Z,96.49
2022-10-20T00:03:46.131Z,96.80
2022-10-20T00:04:46.123Z,96.64
2022-10-20T00:05:46.107Z,96.33
2022-10-20T00:06:46.107Z,96.74
2022-10-20T00:07:46.111Z,96.13
2022-10-20T00:08:46.132Z,96.33
2022-10-20T00:09:46.071Z,96.59
2022-10-20T00:10:46.129Z,96.80
2022-10-20T00:11:46.057Z,96.59
2022-10-20T00:12:46.064Z,96.19
2022-10-20T00:13:46.025Z,96.08
2022-10-20T00:14:46.015Z,96.23
2022-10-20T00:15:46.005Z,96.95
2022-10-20T00:16:45.997Z,97.36
2022-10-20T00:17:46.001Z,97.66
2022-10-20T00:18:45.972Z,98.28
2022-10-20T00:19:45.959Z,97.52
2022-10-20T00:20:45.959Z,96.59
2022-10-20T00:21:45.935Z,97.31
2022-10-20T00:22:45.930Z,96.39
2022-10-20T00:23:45.939Z,95.51
2022-10-20T00:24:45.914Z,95.51
2022-10-20T00:25:45.898Z,95.10
2022-10-20T00:26:45.888Z,95.21
2022-10-20T00:27:45.877Z,94.90
2022-10-20T00:28:45.889Z,95.10
2022-10-20T00:29:45.855Z,95.21
2022-10-20T00:30:45.854Z,95.92
2022-10-20T00:31:45.849Z,95.41
2022-10-20T00:32:45.823Z,95.41
2022-10-20T00:33:45.809Z,93.98
2022-10-20T00:34:45.806Z,95.00
2022-10-20T00:35:45.793Z,95.31
2022-10-20T00:36:50.313Z,96.23
2022-10-20T00:37:45.779Z,95.41
2022-10-20T00:38:45.779Z,94.33
2022-10-20T00:39:45.749Z,95.31
2022-10-20T00:40:45.743Z,95.82
2022-10-20T00:41:45.728Z,95.66
2022-10-20T00:42:45.767Z,95.97
2022-10-20T00:43:45.714Z,95.56
2022-10-20T00:44:45.701Z,95.97
2022-10-20T00:45:45.680Z,95.56
2022-10-20T00:46:45.697Z,96.38
2022-10-20T00:48:45.673Z,95.97
2022-10-20T00:49:45.642Z,95.66
2022-10-20T00:50:45.633Z,95.66
2022-10-20T00:51:45.640Z,95.46
2022-10-20T00:52:45.632Z,95.76
2022-10-20T00:53:45.610Z,95.76
2022-10-20T00:54:45.603Z,96.07
2022-10-20T00:55:45.580Z,94.23
2022-10-20T00:56:45.589Z,94.64
2022-10-20T00:57:45.558Z,93.30
2022-10-20T00:58:45.572Z,94.12
2022-10-20T00:59:45.534Z,94.12
2022-10-20T01:00:45.533Z,93.10
2022-10-20T01:01:45.602Z,93.30
2022-10-20T01:02:45.510Z,94.54
2022-10-20T01:03:45.492Z,93.76
2022-10-20T01:04:45.502Z,94.78
2022-10-20T01:05:45.481Z,94.99
2022-10-20T01:06:45.467Z,95.70
2022-10-20T01:07:45.450Z,95.61
2022-10-20T01:08:45.471Z,94.89
2022-10-20T01:09:45.428Z,95.61
2022-10-20T05:00:59.548Z,93.48
2022-10-20T05:02:00.565Z,94.40
2022-10-20T05:03:00.532Z,94.20
2022-10-20T05:04:00.491Z,94.10
2022-10-20T05:05:00.479Z,93.59
2022-10-20T05:06:00.498Z,92.66
2022-10-20T05:07:00.462Z,93.59
2022-10-20T05:08:00.451Z,93.12
2022-10-20T05:09:00.464Z,93.93
2022-10-20T05:10:00.435Z,94.04
2022-10-20T05:11:00.418Z,93.83
2022-10-20T05:12:00.541Z,93.21
2022-10-20T05:13:00.399Z,93.42
2022-10-20T05:14:00.390Z,93.32
2022-10-20T05:15:00.372Z,94.45
2022-10-20T05:16:00.526Z,94.96
2022-10-20T05:17:00.377Z,94.24
2022-10-20T05:18:06.378Z,93.93
2022-10-20T05:19:00.586Z,94.45
2022-10-20T05:20:00.326Z,94.34
2022-10-20T05:21:09.368Z,94.65
2022-10-20T05:22:00.306Z,94.55
2022-10-20T05:23:00.304Z,94.85
2022-10-20T05:24:00.289Z,95.06
2022-10-20T05:25:12.775Z,94.20
2022-10-20T05:26:00.217Z,94.81
2022-10-20T05:27:00.263Z,95.02
2022-10-20T05:28:00.253Z,93.48
2022-10-20T05:29:00.434Z,93.89
2022-10-20T05:30:00.170Z,94.51
2022-10-20T05:31:01.558Z,94.10
2022-10-20T05:32:00.151Z,93.79
2022-10-20T05:33:00.131Z,94.20
2022-10-20T05:34:00.149Z,93.89
2022-10-20T05:35:00.131Z,94.20
2022-10-20T05:36:00.110Z,94.10
2022-10-20T05:37:00.101Z,93.99
2022-10-20T05:38:00.086Z,94.51
2022-10-20T05:39:00.070Z,94.40
2022-10-20T05:40:00.069Z,94.20
2022-10-20T05:41:00.087Z,95.43
2022-10-20T05:42:00.033Z,94.92
2022-10-20T05:43:00.047Z,94.61
2022-10-20T05:44:00.018Z,94.20
2022-10-20T05:45:00.004Z,93.38
2022-10-20T05:45:59.999Z,93.59
2022-10-20T05:47:00.533Z,92.04
2022-10-20T05:47:59.984Z,91.53
2022-10-20T05:48:59.964Z,92.04
2022-10-20T05:49:59.959Z,93.27
2022-10-20T05:50:59.949Z,93.27
2022-10-20T05:51:59.937Z,92.25
2022-10-20T05:52:59.936Z,92.86
2022-10-20T05:53:59.910Z,93.59
2022-10-20T05:54:59.895Z,93.59
2022-10-20T05:55:59.888Z,92.76
2022-10-20T05:56:59.874Z,92.04
2022-10-20T05:57:59.865Z,91.74
2022-10-20T05:58:59.873Z,92.25
2022-10-20T05:59:59.849Z,92.50
2022-10-20T06:00:59.847Z,93.99
2022-10-20T06:01:59.830Z,93.48
2022-10-20T06:02:59.817Z,93.89
2022-10-20T06:03:59.909Z,94.20
2022-10-20T06:04:59.808Z,94.81
2022-10-20T06:05:59.780Z,95.32
2022-10-20T06:06:59.791Z,93.79
2022-10-20T06:07:59.765Z,93.07
2022-10-20T06:08:59.937Z,93.89
2022-10-20T06:09:59.741Z,93.99
2022-10-20T06:10:59.724Z,94.40
2022-10-20T06:11:59.787Z,94.30
2022-10-20T06:12:59.706Z,94.92
2022-10-20T06:13:59.706Z,95.02
2022-10-20T06:14:59.683Z,94.20
2022-10-20T06:15:59.680Z,92.46
2022-10-20T06:16:59.665Z,93.89
2022-10-20T06:17:59.689Z,92.66
2022-10-20T06:18:59.647Z,94.10
2022-10-20T06:19:59.634Z,94.20
2022-10-20T06:20:59.628Z,92.86
2022-10-20T06:22:03.854Z,93.64
2022-10-20T06:22:59.606Z,93.54
2022-10-20T06:23:59.620Z,92.82
2022-10-20T06:24:59.580Z,92.97
2022-10-20T06:25:59.572Z,93.74
2022-10-20T06:26:59.550Z,93.54
2022-10-20T06:27:59.548Z,93.64
2022-10-20T06:29:03.933Z,93.74
2022-10-20T06:29:59.555Z,94.67
2022-10-20T06:30:59.518Z,94.77
2022-10-20T06:31:59.502Z,93.44
2022-10-20T06:32:59.493Z,93.95
2022-10-20T06:33:59.482Z,94.36
2022-10-20T06:34:59.486Z,94.98
2022-10-20T06:35:59.465Z,95.07
2022-10-20T06:36:59.451Z,94.98
2022-10-20T06:37:59.446Z,94.46
2022-10-20T06:38:59.523Z,93.54
2022-10-20T06:39:59.436Z,93.23
2022-10-20T06:40:59.407Z,93.54
2022-10-20T06:41:59.420Z,94.36
2022-10-20T06:42:59.486Z,95.18
2022-10-20T06:43:59.390Z,95.24
2022-10-20T06:44:59.360Z,93.90
2022-10-20T06:45:59.385Z,94.01
2022-10-20T06:46:59.343Z,94.52
2022-10-20T06:47:59.336Z,95.54
2022-10-20T06:48:59.384Z,94.52
2022-10-20T06:49:59.324Z,93.80
2022-10-20T06:50:59.306Z,93.70
2022-10-20T06:51:59.389Z,93.70
2022-10-20T06:52:59.308Z,94.01
2022-10-20T06:53:59.274Z,94.07
2022-10-20T06:54:59.254Z,93.25
2022-10-20T06:55:59.252Z,94.37
2022-10-20T06:56:59.249Z,93.96
2022-10-20T06:57:59.245Z,93.76
2022-10-20T06:58:59.216Z,93.15
2022-10-20T06:59:59.212Z,93.15
2022-10-20T07:00:59.205Z,93.96
2022-10-20T07:01:59.260Z,94.17
2022-10-20T07:02:59.188Z,94.54
2022-10-20T07:03:59.217Z,93.41
2022-10-20T07:04:59.215Z,93.51
2022-10-20T07:05:59.155Z,93.71
2022-10-20T07:06:59.133Z,93.71
2022-10-20T07:07:59.118Z,94.54
2022-10-20T07:08:59.194Z,94.95
2022-10-20T07:09:59.106Z,93.20
2022-10-20T07:10:59.092Z,94.02
2022-10-20T07:11:59.079Z,94.12
2022-10-20T07:12:59.091Z,94.02
2022-10-20T07:13:59.082Z,94.23
2022-10-20T07:14:59.070Z,94.02
2022-10-20T07:15:59.037Z,94.70
2022-10-20T07:16:59.029Z,94.39
2022-10-20T07:17:59.022Z,95.21
2022-10-20T07:18:59.012Z,93.47
2022-10-20T07:19:59.001Z,93.98
2022-10-20T07:20:58.993Z,93.88
2022-10-20T07:21:58.979Z,93.77
2022-10-20T07:22:58.974Z,93.06
2022-10-20T07:23:58.953Z,93.57
2022-10-20T07:24:58.941Z,93.37
2022-10-20T07:25:58.944Z,92.65
2022-10-20T07:26:58.927Z,91.52
2022-10-20T07:27:58.914Z,92.81
2022-10-20T07:28:58.898Z,92.81
2022-10-20T07:29:58.887Z,94.14
2022-10-20T07:30:58.898Z,93.73
2022-10-20T07:32:01.292Z,93.22
2022-10-20T07:32:58.858Z,93.01
2022-10-20T07:34:07.232Z,93.84
2022-10-20T07:34:58.845Z,94.04
2022-10-20T07:35:58.815Z,93.93
2022-10-20T07:36:58.839Z,94.34
2022-10-20T07:37:58.801Z,95.06
2022-10-20T07:38:58.791Z,93.89
2022-10-20T07:39:58.781Z,94.30
2022-10-20T07:41:00.676Z,92.87
2022-10-20T07:41:58.767Z,92.36
2022-10-20T07:42:58.759Z,92.77
2022-10-20T07:43:58.765Z,93.69
2022-10-20T07:44:58.734Z,93.99
2022-10-20T07:45:58.720Z,93.99
2022-10-20T07:46:58.705Z,92.87
2022-10-20T07:47:58.713Z,94.60
2022-10-20T07:49:11.391Z,94.06
2022-10-20T07:49:58.681Z,93.54
2022-10-20T07:50:58.664Z,94.06
2022-10-20T07:51:58.678Z,93.33
2022-10-20T07:52:58.644Z,93.24
2022-10-20T07:54:00.587Z,91.39
2022-10-20T07:55:06.445Z,92.93
2022-10-20T07:55:58.622Z,94.15
2022-10-20T07:56:58.612Z,93.33
2022-10-20T07:57:58.596Z,92.93
2022-10-20T07:58:58.583Z,91.80
2022-10-20T07:59:58.585Z,92.72
2022-10-20T08:00:58.565Z,93.24
2022-10-20T08:02:00.435Z,93.60
2022-10-20T08:02:58.578Z,92.99
2022-10-20T08:03:58.562Z,94.11
2022-10-20T08:04:58.587Z,92.99
2022-10-20T08:05:58.555Z,92.17
2022-10-20T08:06:58.496Z,92.47
2022-10-20T08:07:58.517Z,92.27
2022-10-20T08:08:58.515Z,92.47
2022-10-20T08:09:58.473Z,92.68
2022-10-20T08:10:58.476Z,93.09
2022-10-20T08:11:58.446Z,92.17
2022-10-20T08:12:58.443Z,92.74
2022-10-20T08:13:58.417Z,92.64
2022-10-20T08:15:00.251Z,92.23
2022-10-20T08:15:58.480Z,92.33
2022-10-20T08:16:59.073Z,91.61
2022-10-20T08:17:58.382Z,91.92
2022-10-20T08:19:09.111Z,91.72
2022-10-20T08:20:04.610Z,90.90
2022-10-20T08:20:58.343Z,92.33
2022-10-20T08:21:58.332Z,92.54
2022-10-20T08:22:58.350Z,91.78
2022-10-20T08:23:58.313Z,92.39
2022-10-20T08:24:58.302Z,93.10
2022-10-20T08:25:58.303Z,92.90
2022-10-20T08:26:58.311Z,91.27
2022-10-20T08:28:58.267Z,91.88
2022-10-20T08:30:06.148Z,91.98
2022-10-20T08:30:58.256Z,91.27
2022-10-20T08:31:58.242Z,91.67
2022-10-20T08:32:58.218Z,92.35
2022-10-20T08:33:58.229Z,92.45
2022-10-20T08:34:58.200Z,92.04
2022-10-20T08:35:58.187Z,91.22
2022-10-20T08:36:58.182Z,91.94
2022-10-20T08:37:58.163Z,91.74
2022-10-20T08:39:00.859Z,90.81
2022-10-20T08:39:58.177Z,91.74
2022-10-20T08:40:58.147Z,91.74
2022-10-20T08:42:13.412Z,92.71
2022-10-20T08:42:58.129Z,91.39
2022-10-20T08:43:58.103Z,91.79
2022-10-20T08:44:58.142Z,91.79
2022-10-20T08:45:58.081Z,91.59
2022-10-20T08:46:58.070Z,91.08
2022-10-20T08:47:58.064Z,90.67
2022-10-20T08:48:58.053Z,91.18
2022-10-20T08:49:58.048Z,90.57
2022-10-20T08:50:58.049Z,90.12
2022-10-20T08:51:58.016Z,91.35
2022-10-20T08:52:58.002Z,91.44
2022-10-20T08:53:58.022Z,91.03
2022-10-20T08:54:57.980Z,90.32
2022-10-20T08:55:57.991Z,89.92
2022-10-20T08:56:57.983Z,89.92
2022-10-20T08:57:57.949Z,89.71
2022-10-20T08:58:57.946Z,90.53
2022-10-20T08:59:57.925Z,89.71
2022-10-20T09:00:57.922Z,89.71
2022-10-20T09:01:58.040Z,90.94
2022-10-20T09:02:57.904Z,90.83
2022-10-20T09:03:57.885Z,90.53
2022-10-20T09:04:57.884Z,89.47
2022-10-20T09:05:57.881Z,89.97
2022-10-20T09:06:57.848Z,90.38
2022-10-20T09:07:57.839Z,90.28
2022-10-20T09:08:57.942Z,88.75
2022-10-20T09:09:57.832Z,90.48
2022-10-20T09:10:57.812Z,90.59
2022-10-20T09:11:57.817Z,90.28
2022-10-20T09:12:57.790Z,90.08
2022-10-20T09:13:57.789Z,90.28
2022-10-20T09:14:57.780Z,89.36
2022-10-20T09:15:57.760Z,89.22
2022-10-20T09:17:00.695Z,90.34
2022-10-20T09:17:57.765Z,89.73
2022-10-20T09:18:57.730Z,91.16
2022-10-20T09:19:57.716Z,89.73
2022-10-20T09:20:57.739Z,90.03
2022-10-20T09:21:57.700Z,90.75
2022-10-20T09:22:58.262Z,89.01
2022-10-20T09:23:57.693Z,89.12
2022-10-20T09:24:57.659Z,89.94
2022-10-20T09:25:57.652Z,89.22
2022-10-20T09:26:59.646Z,88.61
2022-10-20T09:27:57.624Z,88.51
2022-10-20T09:29:12.366Z,89.89
2022-10-20T09:29:57.621Z,88.26
2022-10-20T09:30:57.603Z,89.99
2022-10-20T09:31:57.599Z,90.70
2022-10-20T09:32:57.895Z,88.46
2022-10-20T09:33:57.588Z,87.96
2022-10-20T09:34:57.572Z,88.46
2022-10-20T09:35:57.541Z,88.46
2022-10-20T09:36:57.538Z,88.57
2022-10-20T09:37:57.533Z,87.96
2022-10-20T09:38:57.526Z,87.92
2022-10-20T09:39:57.509Z,89.14
2022-10-20T09:40:57.518Z,88.83
2022-10-20T09:41:57.535Z,87.81
2022-10-20T09:42:57.472Z,89.24
2022-10-20T09:43:58.247Z,88.93
2022-10-20T09:44:57.469Z,87.61
2022-10-20T09:45:57.467Z,88.83
2022-10-20T09:46:57.423Z,89.03
2022-10-20T09:47:57.415Z,87.67
2022-10-20T09:48:57.406Z,88.18
2022-10-20T09:50:00.856Z,87.47
2022-10-20T09:50:57.387Z,85.03
2022-10-20T09:51:57.411Z,88.39
2022-10-20T09:52:57.370Z,87.57
2022-10-20T09:53:57.349Z,88.69
2022-10-20T09:54:57.351Z,87.06
2022-10-20T09:55:57.333Z,88.08
2022-10-20T09:56:57.325Z,91.03
2022-10-20T09:57:57.326Z,89.20
2022-10-20T09:58:57.313Z,89.61
2022-10-20T10:00:04.546Z,89.30
2022-10-20T10:00:57.331Z,89.00
2022-10-20T10:01:57.270Z,89.81
2022-10-20T10:02:57.255Z,87.26
2022-10-20T10:03:57.263Z,87.57
2022-10-20T10:04:57.254Z,87.77
2022-10-20T10:05:57.222Z,86.04
2022-10-20T10:06:57.216Z,87.57
2022-10-20T10:07:57.253Z,87.84
2022-10-20T10:08:57.264Z,87.53
2022-10-20T10:09:57.264Z,85.80
2022-10-20T10:10:57.178Z,87.02
2022-10-20T10:11:57.153Z,87.23
2022-10-20T10:12:57.186Z,84.99
2022-10-20T10:13:57.147Z,86.82
2022-10-20T10:14:57.141Z,87.73
2022-10-20T10:15:57.125Z,87.43
2022-10-20T10:16:57.106Z,87.63
2022-10-20T10:17:57.101Z,86.00
2022-10-20T10:18:57.088Z,88.24
2022-10-20T10:19:57.101Z,87.43
2022-10-20T10:20:57.074Z,88.13
2022-10-20T10:21:57.049Z,88.54
2022-10-20T10:22:57.042Z,88.13
2022-10-20T10:23:57.040Z,87.02
2022-10-20T10:24:57.018Z,88.44
2022-10-20T10:26:00.571Z,86.71
2022-10-20T10:26:57.017Z,87.84
2022-10-20T10:27:57.007Z,85.49
2022-10-20T10:28:56.976Z,88.13
2022-10-20T10:29:56.978Z,88.13
2022-10-20T10:30:56.965Z,87.84
2022-10-20T10:31:56.939Z,86.82
2022-10-20T10:32:56.936Z,88.71
2022-10-20T10:33:56.917Z,87.43
2022-10-20T10:34:56.938Z,87.69
2022-10-20T10:35:56.921Z,87.89
2022-10-20T10:36:56.912Z,86.37
2022-10-20T10:37:56.879Z,88.40
2022-10-20T10:38:56.867Z,89.42
2022-10-20T10:39:56.864Z,88.10
2022-10-20T10:40:56.871Z,88.40
2022-10-20T10:42:56.826Z,87.18
2022-10-20T10:43:56.814Z,86.68
2022-10-20T10:44:56.838Z,88.20
2022-10-20T10:45:56.823Z,85.66
2022-10-20T10:46:56.788Z,86.47
2022-10-20T10:47:56.773Z,87.38
2022-10-20T10:48:56.766Z,87.99
2022-10-20T10:49:56.754Z,87.08
2022-10-20T10:50:56.751Z,86.27
2022-10-20T10:51:56.747Z,86.27
2022-10-20T10:52:56.722Z,87.49
2022-10-20T10:53:56.705Z,87.02
2022-10-20T10:54:56.718Z,87.23
2022-10-20T10:55:56.714Z,87.63
2022-10-20T10:56:56.707Z,88.13
2022-10-20T10:57:56.672Z,86.41
2022-10-20T10:58:56.653Z,89.15
2022-10-20T10:59:56.645Z,88.34
2022-10-20T11:00:56.652Z,88.34
2022-10-20T11:01:56.639Z,88.54
2022-10-20T11:02:56.648Z,88.85
2022-10-20T11:03:56.597Z,87.12
2022-10-20T11:04:56.595Z,87.12
2022-10-20T11:05:56.581Z,88.34
2022-10-20T11:06:58.036Z,88.54
2022-10-20T11:07:56.575Z,87.23
2022-10-20T11:08:56.577Z,87.53
2022-10-20T11:09:56.551Z,86.82
2022-10-20T11:10:56.527Z,86.71
2022-10-20T11:11:56.524Z,88.95
2022-10-20T11:12:56.523Z,86.77
2022-10-20T11:13:56.533Z,87.84
2022-10-20T11:14:56.532Z,87.49
2022-10-20T11:15:56.470Z,87.79
2022-10-20T11:16:56.462Z,86.47
2022-10-20T11:18:02.483Z,87.08
2022-10-20T11:18:56.437Z,86.77
2022-10-20T11:19:56.472Z,86.88
2022-10-20T11:20:56.428Z,85.46
2022-10-20T11:21:56.447Z,86.37
2022-10-20T11:22:56.401Z,87.89
2022-10-20T11:23:56.405Z,87.49
2022-10-20T11:24:56.381Z,86.57
2022-10-20T11:25:56.392Z,85.66
2022-10-20T11:26:56.355Z,85.35
2022-10-20T11:27:56.377Z,85.82
2022-10-20T11:28:56.340Z,87.04
2022-10-20T11:29:56.342Z,85.21
2022-10-20T11:30:56.312Z,84.70
2022-10-20T11:31:56.326Z,86.53
2022-10-20T11:32:56.294Z,84.40
2022-10-20T11:33:56.295Z,85.11
2022-10-20T11:34:56.274Z,85.31
2022-10-20T11:35:56.262Z,85.38
2022-10-20T11:36:56.261Z,86.29
2022-10-20T11:37:56.231Z,86.49
2022-10-20T11:38:56.230Z,84.16
2022-10-20T11:39:56.245Z,85.88
2022-10-20T11:40:56.205Z,84.77
2022-10-20T11:41:56.214Z,87.61
2022-10-20T11:42:56.350Z,86.29
2022-10-20T11:43:56.170Z,87.30
2022-10-20T11:44:56.158Z,84.66
2022-10-20T11:45:56.158Z,85.47
2022-10-20T11:46:56.155Z,86.29
2022-10-20T11:47:56.131Z,86.19
2022-10-20T11:49:00.222Z,87.20
2022-10-20T11:49:56.143Z,85.78
2022-10-20T11:50:56.198Z,84.97
2022-10-20T11:51:56.102Z,87.30
2022-10-20T11:52:56.077Z,86.80
2022-10-20T11:53:56.070Z,86.59
2022-10-20T11:54:56.055Z,85.58
2022-10-20T11:55:56.093Z,86.08
2022-10-20T11:56:56.032Z,85.27
2022-10-20T11:57:57.671Z,86.19
2022-10-20T11:58:56.013Z,87.30
2022-10-20T11:59:56.003Z,86.29
2022-10-20T12:00:58.897Z,87.61
2022-10-20T12:01:56.016Z,86.59
2022-10-20T12:02:55.971Z,84.05
2022-10-20T12:03:55.965Z,84.56
2022-10-20T12:04:55.949Z,84.66
2022-10-20T12:05:55.936Z,87.30
2022-10-20T12:06:55.943Z,86.80
2022-10-20T12:08:10.975Z,87.51
2022-10-20T12:08:55.943Z,86.90
2022-10-20T12:09:55.893Z,85.07
2022-10-20T12:10:55.882Z,85.07
2022-10-20T12:11:55.869Z,88.01
2022-10-20T12:12:55.874Z,85.27
2022-10-20T12:13:55.877Z,85.47
2022-10-20T12:14:55.846Z,86.08
2022-10-20T12:15:55.836Z,87.40
2022-10-20T12:16:55.836Z,87.92
2022-10-20T12:17:55.808Z,88.12
2022-10-20T12:18:55.820Z,88.12
2022-10-20T12:19:55.859Z,86.29
2022-10-20T12:20:55.771Z,86.39
2022-10-20T12:21:55.767Z,87.71
2022-10-20T12:22:55.757Z,87.92
2022-10-20T12:23:55.750Z,88.07
2022-10-20T12:24:55.752Z,88.32
2022-10-20T12:25:55.780Z,88.82
2022-10-20T12:26:55.711Z,89.33
2022-10-20T12:27:55.764Z,88.21
2022-10-20T12:28:55.692Z,89.33
2022-10-20T12:29:55.676Z,87.92
2022-10-20T12:30:55.668Z,88.21
2022-10-20T12:31:56.973Z,89.33
2022-10-20T12:32:55.650Z,89.90
2022-10-20T12:33:55.637Z,91.52
2022-10-20T12:34:55.626Z,89.90
2022-10-20T12:35:55.635Z,88.62
2022-10-20T12:36:55.652Z,87.00
2022-10-20T12:37:55.612Z,87.81
2022-10-20T12:38:55.577Z,88.21
2022-10-20T12:39:55.581Z,87.40
2022-10-20T12:40:55.585Z,88.01
2022-10-20T12:41:55.595Z,89.74
2022-10-20T12:42:55.537Z,88.93
2022-10-20T12:43:55.557Z,89.23
2022-10-20T12:44:55.519Z,90.14
2022-10-20T12:45:55.523Z,89.13
2022-10-20T12:46:55.506Z,88.12
2022-10-20T12:47:55.486Z,85.98
2022-10-20T12:48:55.506Z,86.49
2022-10-20T12:49:55.470Z,85.78
2022-10-20T12:50:55.455Z,87.40
2022-10-20T12:51:55.465Z,87.61
2022-10-20T12:52:55.428Z,87.51
2022-10-20T12:53:55.452Z,88.21
2022-10-20T12:54:55.405Z,88.21
2022-10-20T12:55:55.404Z,88.12
2022-10-20T12:56:55.383Z,89.33
2022-10-20T12:57:55.401Z,89.33
2022-10-20T12:58:55.384Z,89.54
2022-10-20T12:59:55.368Z,88.93
2022-10-20T13:00:55.382Z,87.40
2022-10-20T13:01:55.345Z,87.30
2022-10-20T13:02:55.339Z,87.10
2022-10-20T13:03:55.322Z,86.19
2022-10-20T13:04:55.305Z,86.29
2022-10-20T13:05:55.298Z,86.39
2022-10-20T13:06:55.281Z,88.21
2022-10-20T13:07:55.303Z,87.30
2022-10-20T13:08:55.342Z,88.32
2022-10-20T13:09:57.862Z,89.33
2022-10-20T13:10:55.255Z,88.01
2022-10-20T13:11:55.234Z,87.51
2022-10-20T13:12:55.209Z,88.21
2022-10-20T13:13:56.665Z,86.69
2022-10-20T13:14:55.208Z,86.19
2022-10-20T13:15:55.226Z,88.32
2022-10-20T13:16:55.179Z,88.62
2022-10-20T13:17:55.178Z,88.21
2022-10-20T13:18:55.156Z,88.82
2022-10-20T13:20:00.422Z,89.23
2022-10-20T13:20:55.166Z,87.81
2022-10-20T13:21:55.137Z,89.13
2022-10-20T13:22:55.169Z,87.71
2022-10-20T13:23:55.107Z,89.03
2022-10-20T13:24:56.737Z,87.92
2022-10-20T13:25:55.081Z,86.29
2022-10-20T13:26:55.088Z,87.10
2022-10-20T13:27:55.061Z,86.80
2022-10-20T13:28:55.043Z,89.23
2022-10-20T13:29:55.044Z,88.73
2022-10-20T13:30:55.030Z,88.21
2022-10-20T13:31:55.057Z,87.61
2022-10-20T13:33:11.481Z,87.61
2022-10-20T13:34:10.454Z,85.98
2022-10-20T13:34:54.997Z,88.12
2022-10-20T13:35:54.973Z,88.42
2022-10-20T13:36:54.981Z,87.20
2022-10-20T13:37:54.990Z,88.21
2022-10-20T13:38:54.944Z,88.82
2022-10-20T13:39:54.940Z,86.90
2022-10-20T13:40:54.964Z,86.49
2022-10-20T13:41:54.919Z,88.21
2022-10-20T13:42:54.900Z,87.61
2022-10-20T13:43:57.762Z,86.80
2022-10-20T13:44:54.874Z,89.54
2022-10-20T13:45:54.864Z,88.62
2022-10-20T13:46:54.851Z,88.12
2022-10-20T13:47:54.850Z,88.82
2022-10-20T13:48:54.829Z,89.43
2022-10-20T13:49:54.839Z,87.71
2022-10-20T13:50:54.815Z,87.24
2022-10-20T13:51:54.799Z,89.48
2022-10-20T13:52:54.782Z,89.98
2022-10-20T13:53:54.791Z,88.26
2022-10-20T13:54:54.786Z,89.07
2022-10-20T13:55:54.761Z,88.87
2022-10-20T13:56:54.746Z,88.67
2022-10-20T13:57:55.599Z,88.67
2022-10-20T13:58:54.731Z,88.46
2022-10-20T13:59:54.752Z,88.56
2022-10-20T14:00:54.727Z,88.46
2022-10-20T14:01:54.699Z,88.97
2022-10-20T14:02:54.683Z,88.67
2022-10-20T14:03:54.675Z,89.17
2022-10-20T14:04:54.675Z,89.17
2022-10-20T14:05:54.686Z,89.17
2022-10-20T14:06:54.698Z,89.17
2022-10-20T14:07:54.636Z,88.97
2022-10-20T14:08:54.640Z,88.67
2022-10-20T14:09:54.760Z,89.58
2022-10-20T14:10:54.613Z,89.37
2022-10-20T14:11:54.591Z,89.68
2022-10-20T14:12:54.590Z,89.28
2022-10-20T14:13:54.575Z,90.09
2022-10-20T14:14:57.042Z,89.28
2022-10-20T14:15:54.550Z,89.58
2022-10-20T14:16:54.535Z,89.28
2022-10-20T14:18:54.508Z,90.59
2022-10-20T14:19:54.532Z,89.98
2022-10-20T14:20:54.482Z,90.19
2022-10-20T14:21:54.478Z,91.00
2022-10-20T14:22:54.472Z,90.70
2022-10-20T14:23:54.514Z,89.98
2022-10-20T14:24:54.451Z,90.90
2022-10-20T14:25:54.441Z,91.10
2022-10-20T14:26:54.473Z,90.80
2022-10-20T14:27:54.429Z,90.70
2022-10-20T14:28:54.406Z,92.06
2022-10-20T14:29:54.412Z,91.61
2022-10-20T14:30:54.386Z,91.51
2022-10-20T14:31:54.388Z,92.22
2022-10-20T14:32:54.360Z,91.20
2022-10-20T14:33:54.706Z,92.83
2022-10-20T14:34:54.352Z,93.13
2022-10-20T14:35:54.337Z,93.13
2022-10-20T14:36:54.334Z,93.24
2022-10-20T14:37:54.319Z,92.63
2022-10-20T14:38:54.292Z,92.52
2022-10-20T14:39:54.307Z,93.13
2022-10-20T14:40:54.280Z,93.59
2022-10-20T14:41:54.263Z,92.57
2022-10-20T14:42:54.263Z,93.18
2022-10-20T14:43:54.245Z,91.35
2022-10-20T14:44:54.251Z,92.47
2022-10-20T14:45:54.237Z,91.75
2022-10-20T14:46:54.217Z,92.47
2022-10-20T14:47:54.207Z,93.07
2022-10-20T14:48:54.195Z,93.68
2022-10-20T14:49:54.182Z,93.68
2022-10-20T14:50:54.189Z,92.97
2022-10-20T14:51:54.171Z,93.59
2022-10-20T14:52:54.475Z,93.59
2022-10-20T14:53:54.161Z,94.20
2022-10-20T14:54:54.148Z,93.07
2022-10-20T14:55:54.119Z,94.20
2022-10-20T14:56:54.139Z,93.89
2022-10-20T14:57:54.115Z,94.29
2022-10-20T14:58:54.090Z,94.50
2022-10-20T14:59:54.080Z,93.89
2022-10-20T15:00:54.082Z,95.36
2022-10-20T15:01:55.976Z,94.95
2022-10-20T15:02:54.048Z,94.54
2022-10-20T15:03:54.163Z,95.05
2022-10-20T15:04:54.019Z,95.15
2022-10-20T15:05:54.018Z,95.36
2022-10-20T15:06:54.001Z,95.86
2022-10-20T15:07:54.007Z,95.86
2022-10-20T15:08:54.037Z,96.27
2022-10-20T15:09:53.973Z,95.66
2022-10-20T15:10:53.960Z,95.76
2022-10-20T15:11:53.949Z,95.97
2022-10-20T15:12:53.935Z,96.37
2022-10-20T15:13:53.942Z,96.27
2022-10-20T15:14:53.952Z,96.07
2022-10-20T15:15:53.912Z,96.68
2022-10-20T15:16:53.897Z,95.56
2022-10-20T15:17:53.890Z,96.47
2022-10-20T15:18:53.915Z,95.86
2022-10-20T15:19:53.877Z,96.68
2022-10-20T15:20:53.852Z,96.27
2022-10-20T15:21:53.842Z,96.88
2022-10-20T15:22:55.367Z,96.07
2022-10-20T15:23:53.835Z,95.86
2022-10-20T15:24:53.818Z,96.27
2022-10-20T15:25:53.819Z,95.97
2022-10-20T15:26:53.782Z,96.88
2022-10-20T15:27:53.782Z,96.27
2022-10-20T15:28:53.769Z,96.68
2022-10-20T15:29:53.752Z,96.47
2022-10-20T15:30:53.742Z,96.88
2022-10-20T15:31:53.758Z,97.29
2022-10-20T15:32:53.770Z,96.98
2022-10-20T15:33:53.717Z,97.08
2022-10-20T15:34:53.701Z,96.68
2022-10-20T15:35:53.687Z,97.39
2022-10-20T15:36:53.697Z,97.49
2022-10-20T15:37:53.678Z,97.08
2022-10-20T15:38:53.655Z,96.78
2022-10-20T15:39:53.647Z,96.92
2022-10-20T15:40:53.675Z,97.23
2022-10-20T15:41:53.988Z,97.23
2022-10-20T15:42:53.628Z,97.33
2022-10-20T15:43:53.596Z,98.14
2022-10-20T15:44:53.594Z,97.64
2022-10-20T15:45:53.586Z,97.74
2022-10-20T15:46:53.612Z,97.84
2022-10-20T15:47:53.560Z,98.14
2022-10-20T15:48:53.569Z,98.05
2022-10-20T15:49:53.561Z,98.75
2022-10-20T15:50:53.531Z,98.45
2022-10-20T15:51:53.518Z,98.45
2022-10-20T15:52:53.531Z,97.94
2022-10-20T15:53:53.496Z,98.14
2022-10-20T15:54:53.506Z,98.30
2022-10-20T15:55:53.519Z,98.39
2022-10-20T15:56:53.510Z,98.70
2022-10-20T15:57:53.472Z,98.70
2022-10-20T15:58:53.500Z,98.30
2022-10-20T15:59:53.527Z,98.19
2022-10-20T16:00:53.514Z,98.50
2022-10-20T16:01:53.413Z,98.70
2022-10-20T16:02:53.464Z,98.30
2022-10-20T16:03:53.395Z,98.30
2022-10-20T16:04:53.385Z,98.60
2022-10-20T16:05:53.374Z,98.70
2022-10-20T16:06:53.381Z,98.80
2022-10-20T16:07:53.385Z,98.91
2022-10-20T16:08:53.393Z,99.01
2022-10-20T16:09:53.328Z,99.21
2022-10-20T16:10:53.320Z,99.41
2022-10-20T16:11:53.302Z,99.52
2022-10-20T16:12:53.293Z,99.52
2022-10-20T16:13:53.285Z,99.82
2022-10-20T16:14:53.278Z,99.41
2022-10-20T16:15:53.271Z,99.66
2022-10-20T16:16:53.277Z,99.82
2022-10-20T16:17:53.235Z,99.77
2022-10-20T16:18:53.271Z,99.36
2022-10-20T16:19:53.232Z,99.05
2022-10-20T16:20:53.277Z,98.85
2022-10-20T16:21:53.235Z,98.85
2022-10-20T16:22:53.822Z,99.36
2022-10-20T16:23:53.215Z,99.46
2022-10-20T16:24:53.208Z,99.56
2022-10-20T16:25:53.765Z,99.77
2022-10-20T16:26:53.222Z,99.97
2022-10-20T16:27:53.133Z,99.97
2022-10-20T16:28:53.138Z,99.66
2022-10-20T16:29:53.170Z,99.97
2022-10-20T16:30:53.115Z,99.99
2022-10-20T16:31:53.092Z,99.87
2022-10-20T16:32:53.084Z,99.05
2022-10-20T16:33:53.072Z,99.16
2022-10-20T16:34:53.102Z,98.75
2022-10-20T16:35:53.045Z,98.54
2022-10-20T16:36:53.045Z,98.44
2022-10-20T16:37:53.028Z,98.75
2022-10-20T16:38:53.023Z,98.54
2022-10-20T16:39:53.026Z,98.24
2022-10-20T16:40:53.000Z,98.44
2022-10-20T16:41:52.989Z,98.44
2022-10-20T16:42:52.974Z,98.34
2022-10-20T16:43:55.229Z,98.54
2022-10-20T16:44:52.975Z,98.54
2022-10-20T16:45:52.944Z,98.95
2022-10-20T16:46:53.013Z,98.54